createdAt,value
2022-12-19T00:02:20.169Z,-6.83
2022-12-19T00:04:52.197Z,-6.84
2022-12-19T00:07:24.200Z,-7.05
2022-12-19T00:09:56.242Z,-7.11
2022-12-19T00:12:28.155Z,-6.57
2022-12-19T00:15:03.421Z,-6.34
2022-12-19T00:17:35.375Z,-6.29
2022-12-19T00:20:09.875Z,-6.43
2022-12-19T00:22:43.619Z,-6.29
2022-12-19T00:25:15.768Z,-6.24
2022-12-19T00:27:48.052Z,-6.31
2022-12-19T00:30:20.174Z,-6.81
2022-12-19T00:32:52.843Z,-6.71
2022-12-19T00:35:25.273Z,-6.49
2022-12-19T00:37:57.673Z,-6.46
2022-12-19T00:40:29.694Z,-6.50
2022-12-19T00:43:01.715Z,-6.68
2022-12-19T00:45:33.898Z,-6.51
2022-12-19T00:48:06.297Z,-6.56
2022-12-19T00:50:39.570Z,-6.62
2022-12-19T00:53:11.587Z,-6.63
2022-12-19T00:55:43.881Z,-7.25
2022-12-19T00:58:15.856Z,-7.01
2022-12-19T01:00:47.910Z,-7.02
2022-12-19T01:03:19.986Z,-6.76
2022-12-19T01:05:52.777Z,-6.66
2022-12-19T01:08:25.966Z,-6.78
2022-12-19T01:11:00.333Z,-6.76
2022-12-19T01:13:34.230Z,-6.72
2022-12-19T01:16:11.242Z,-6.73
2022-12-19T01:18:43.936Z,-6.74
2022-12-19T01:21:15.918Z,-6.70
2022-12-19T01:23:47.896Z,-6.57
2022-12-19T01:26:19.916Z,-6.61
2022-12-19T01:28:51.969Z,-6.51
2022-12-19T01:31:24.059Z,-6.80
2022-12-19T01:33:56.078Z,-6.74
2022-12-19T01:36:28.167Z,-6.70
2022-12-19T01:39:00.254Z,-6.56
2022-12-19T01:41:32.237Z,-6.62
2022-12-19T01:44:06.917Z,-6.54
2022-12-19T01:46:43.927Z,-6.55
2022-12-19T01:49:37.041Z,-6.58
2022-12-19T01:52:11.711Z,-6.53
2022-12-19T01:54:51.963Z,-6.67
2022-12-19T01:57:24.101Z,-6.57
2022-12-19T02:00:00.262Z,-6.60
2022-12-19T02:02:46.735Z,-6.57
2022-12-19T02:05:19.021Z,-6.69
2022-12-19T02:07:52.033Z,-6.63
2022-12-19T02:10:24.095Z,-7.02
2022-12-19T02:12:57.888Z,-6.98
2022-12-19T02:15:37.249Z,-6.82
2022-12-19T02:18:27.167Z,-6.68
2022-12-19T02:21:17.973Z,-6.67
2022-12-19T02:24:08.173Z,-6.80
2022-12-19T02:26:58.791Z,-6.80
2022-12-19T02:29:30.505Z,-6.88
2022-12-19T02:32:15.594Z,-7.10
2022-12-19T02:34:53.449Z,-7.14
2022-12-19T02:37:31.171Z,-7.25
2022-12-19T02:40:09.870Z,-7.62
2022-12-19T02:42:47.151Z,-7.47
2022-12-19T02:45:28.643Z,-7.77
2022-12-19T02:48:08.397Z,-7.68
2022-12-19T02:50:46.857Z,-7.69
2022-12-19T02:53:23.848Z,-7.86
2022-12-19T02:56:19.741Z,-7.82
2022-12-19T02:59:33.181Z,-7.86
2022-12-19T03:02:18.633Z,-8.00
2022-12-19T03:05:14.183Z,-8.13
2022-12-19T03:08:16.760Z,-8.07
2022-12-19T03:11:00.901Z,-8.12
2022-12-19T03:13:37.242Z,-8.15
2022-12-19T03:16:11.414Z,-8.24
2022-12-19T03:18:44.448Z,-8.34
2022-12-19T03:21:40.917Z,-8.41
2022-12-19T03:24:14.735Z,-8.45
2022-12-19T03:26:54.577Z,-8.46
2022-12-19T03:29:46.097Z,-8.70
2022-12-19T03:32:19.119Z,-8.91
2022-12-19T03:35:08.198Z,-8.73
2022-12-19T03:37:43.754Z,-9.02
2022-12-19T03:40:21.872Z,-8.75
2022-12-19T03:43:12.728Z,-8.67
2022-12-19T03:46:09.582Z,-8.74
2022-12-19T03:48:45.874Z,-8.75
2022-12-19T03:51:29.982Z,-8.84
2022-12-19T03:54:41.309Z,-8.86
2022-12-19T03:57:40.210Z,-8.93
2022-12-19T04:00:16.419Z,-9.35
2022-12-19T04:02:52.633Z,-8.91
2022-12-19T04:05:27.490Z,-9.01
2022-12-19T04:08:05.167Z,-9.28
2022-12-19T04:10:48.144Z,-9.30
2022-12-19T04:13:45.226Z,-9.11
2022-12-19T04:16:25.405Z,-9.16
2022-12-19T04:19:03.749Z,-9.32
2022-12-19T04:21:43.309Z,-9.25
2022-12-19T04:24:24.393Z,-9.29
2022-12-19T04:26:57.909Z,-9.38
2022-12-19T04:29:33.484Z,-9.97
2022-12-19T04:32:07.351Z,-9.92
2022-12-19T04:34:42.890Z,-9.44
2022-12-19T04:37:15.717Z,-9.62
2022-12-19T04:39:47.737Z,-9.85
2022-12-19T04:42:19.708Z,-9.84
2022-12-19T04:44:51.702Z,-9.63
2022-12-19T04:47:23.679Z,-9.62
2022-12-19T04:49:55.674Z,-10.13
2022-12-19T04:52:27.700Z,-9.96
2022-12-19T04:54:59.743Z,-9.99
2022-12-19T04:57:32.653Z,-9.70
2022-12-19T05:00:07.513Z,-9.96
2022-12-19T05:02:39.821Z,-10.01
2022-12-19T05:05:12.326Z,-9.89
2022-12-19T05:07:44.434Z,-10.27
2022-12-19T05:10:18.525Z,-10.37
2022-12-19T05:12:50.861Z,-10.03
2022-12-19T05:15:23.860Z,-9.93
2022-12-19T05:17:55.880Z,-10.06
2022-12-19T05:20:28.203Z,-10.19
2022-12-19T05:23:04.330Z,-10.29
2022-12-19T05:25:37.807Z,-10.40
2022-12-19T05:28:10.195Z,-10.03
2022-12-19T05:30:43.960Z,-10.22
2022-12-19T05:33:18.857Z,-9.92
2022-12-19T05:35:50.871Z,-10.13
2022-12-19T05:38:22.844Z,-9.94
2022-12-19T05:40:55.482Z,-10.14
2022-12-19T05:43:27.945Z,-10.25
2022-12-19T05:45:59.937Z,-10.77
2022-12-19T05:48:32.039Z,-10.18
2022-12-19T05:51:04.728Z,-10.34
2022-12-19T05:53:37.774Z,-10.23
2022-12-19T05:56:12.861Z,-10.28
2022-12-19T05:58:45.616Z,-10.11
2022-12-19T06:01:23.263Z,-9.97
2022-12-19T06:03:56.354Z,-10.24
2022-12-19T06:06:28.495Z,-10.15
2022-12-19T06:09:00.626Z,-10.06
2022-12-19T06:11:32.690Z,-10.24
2022-12-19T06:14:07.374Z,-10.30
2022-12-19T06:16:39.495Z,-10.15
2022-12-19T06:19:11.711Z,-10.81
2022-12-19T06:21:48.207Z,-10.07
2022-12-19T06:24:21.785Z,-10.28
2022-12-19T06:26:53.832Z,-10.37
2022-12-19T06:29:26.018Z,-10.15
2022-12-19T06:31:58.065Z,-10.13
2022-12-19T06:35:02.399Z,-10.08
2022-12-19T06:37:22.111Z,-10.19
2022-12-19T06:39:54.119Z,-10.12
2022-12-19T06:42:26.197Z,-10.08
2022-12-19T06:44:58.272Z,-10.13
2022-12-19T06:47:30.253Z,-10.07
2022-12-19T06:50:02.532Z,-10.21
2022-12-19T06:52:34.486Z,-10.14
2022-12-19T06:55:07.203Z,-10.16
2022-12-19T06:57:46.153Z,-10.08
2022-12-19T07:00:18.547Z,-10.07
2022-12-19T07:02:52.681Z,-10.03
2022-12-19T07:05:24.953Z,-10.18
2022-12-19T07:07:56.908Z,-10.30
2022-12-19T07:10:29.803Z,-9.96
2022-12-19T07:13:02.343Z,-9.92
2022-12-19T07:15:36.625Z,-9.95
2022-12-19T07:18:10.315Z,-9.90
2022-12-19T07:20:46.702Z,-9.92
2022-12-19T07:23:22.660Z,-9.86
2022-12-19T07:25:54.544Z,-9.81
2022-12-19T07:28:26.951Z,-10.40
2022-12-19T07:30:59.010Z,-10.40
2022-12-19T07:33:31.089Z,-10.11
2022-12-19T07:36:03.182Z,-10.41
2022-12-19T07:38:37.022Z,-10.38
2022-12-19T07:41:09.041Z,-10.47
2022-12-19T07:43:41.064Z,-9.82
2022-12-19T07:46:13.505Z,-10.27
2022-12-19T07:48:45.544Z,-10.24
2022-12-19T07:51:17.682Z,-10.02
2022-12-19T07:53:49.804Z,-9.57
2022-12-19T07:56:22.061Z,-9.97
2022-12-19T07:58:54.318Z,-9.48
2022-12-19T08:01:28.589Z,-9.51
2022-12-19T08:04:01.451Z,-9.74
2022-12-19T08:06:39.139Z,-9.33
2022-12-19T08:09:14.001Z,-9.20
2022-12-19T08:11:46.397Z,-9.31
2022-12-19T08:14:18.381Z,-9.29
2022-12-19T08:17:19.253Z,-9.26
2022-12-19T08:19:42.337Z,-9.18
2022-12-19T08:22:14.378Z,-9.52
2022-12-19T08:24:46.452Z,-9.33
2022-12-19T08:27:19.121Z,-9.50
2022-12-19T08:29:51.427Z,-9.07
2022-12-19T08:32:23.455Z,-9.12
2022-12-19T08:34:56.998Z,-9.20
2022-12-19T08:37:28.955Z,-9.23
2022-12-19T08:40:00.969Z,-8.98
2022-12-19T08:42:33.954Z,-9.06
2022-12-19T08:45:06.660Z,-8.85
2022-12-19T08:47:38.667Z,-8.90
2022-12-19T08:50:11.515Z,-8.87
2022-12-19T08:52:43.590Z,-8.46
2022-12-19T08:55:15.850Z,-8.62
2022-12-19T08:57:48.635Z,-8.54
2022-12-19T09:00:21.368Z,-8.36
2022-12-19T09:02:54.317Z,-8.26
2022-12-19T09:06:03.515Z,-8.30
2022-12-19T09:08:18.337Z,-8.22
2022-12-19T09:10:50.531Z,-8.19
2022-12-19T09:13:22.564Z,-8.25
2022-12-19T09:16:10.980Z,-7.86
2022-12-19T09:18:54.532Z,-7.85
2022-12-19T09:21:30.273Z,-7.58
2022-12-19T09:24:07.716Z,-7.64
2022-12-19T09:26:42.609Z,-7.61
2022-12-19T09:29:20.931Z,-7.50
2022-12-19T09:31:56.401Z,-7.69
2022-12-19T09:34:38.145Z,-7.55
2022-12-19T09:37:16.927Z,-7.41
2022-12-19T09:39:51.695Z,-7.17
2022-12-19T09:42:56.938Z,-7.15
2022-12-19T09:45:41.776Z,-7.38
2022-12-19T09:48:24.088Z,-7.08
2022-12-19T09:51:29.112Z,-7.07
2022-12-19T09:54:11.908Z,-7.11
2022-12-19T09:56:46.891Z,-7.28
2022-12-19T09:59:39.760Z,-6.85
2022-12-19T10:02:21.028Z,-6.80
2022-12-19T10:05:06.587Z,-6.55
2022-12-19T10:08:08.509Z,-6.73
2022-12-19T10:12:40.779Z,-6.65
2022-12-19T10:14:33.375Z,-6.70
2022-12-19T10:17:29.644Z,-6.62
2022-12-19T10:20:01.612Z,-6.64
2022-12-19T10:22:56.137Z,-7.27
2022-12-19T10:25:31.892Z,-6.62
2022-12-19T10:28:45.562Z,-6.79
2022-12-19T10:31:22.946Z,-6.62
2022-12-19T10:34:16.571Z,-6.73
2022-12-19T10:39:57.998Z,-6.60
2022-12-19T10:42:44.384Z,-6.65
2022-12-19T10:45:19.926Z,-6.41
2022-12-19T10:47:58.270Z,-6.38
2022-12-19T10:50:31.111Z,-5.96
2022-12-19T10:53:08.711Z,-6.14
2022-12-19T10:55:45.944Z,-6.08
2022-12-19T10:58:38.135Z,-6.04
2022-12-19T11:01:24.896Z,-6.43
2022-12-19T11:04:17.810Z,-5.94
2022-12-19T11:07:05.693Z,-5.86
2022-12-19T11:09:41.948Z,-5.86
2022-12-19T11:16:09.503Z,-6.09
2022-12-19T11:19:45.314Z,-6.00
2022-12-19T11:24:53.850Z,-5.91
2022-12-19T11:29:19.663Z,-5.98
2022-12-19T11:29:33.109Z,-6.28
2022-12-19T11:30:48.179Z,-5.97
2022-12-19T11:33:27.637Z,-6.24
2022-12-19T11:36:02.089Z,-5.88
2022-12-19T11:38:42.837Z,-5.84
2022-12-19T11:41:29.609Z,-5.80
2022-12-19T11:44:34.815Z,-5.63
2022-12-19T11:47:32.878Z,-5.85
2022-12-19T11:50:15.842Z,-5.79
2022-12-19T11:53:14.668Z,-5.87
2022-12-19T11:55:56.274Z,-5.95
2022-12-19T11:58:30.269Z,-6.71
2022-12-19T12:01:23.986Z,-6.08
2022-12-19T12:04:05.462Z,-6.04
2022-12-19T12:06:50.923Z,-5.95
2022-12-19T12:12:39.365Z,-5.95
2022-12-19T12:21:39.530Z,-6.16
2022-12-19T12:28:20.920Z,-6.01
2022-12-19T12:31:05.842Z,-6.27
2022-12-19T12:31:06.473Z,-6.32
2022-12-19T12:31:54.114Z,-6.02
2022-12-19T12:32:06.314Z,-6.09
2022-12-19T12:35:19.235Z,-6.10
2022-12-19T12:38:36.071Z,-6.08
2022-12-19T12:41:44.494Z,-6.22
2022-12-19T12:44:16.604Z,-6.15
2022-12-19T12:47:00.110Z,-6.08
2022-12-19T12:49:46.618Z,-6.13
2022-12-19T12:52:42.317Z,-6.22
2022-12-19T12:55:40.642Z,-6.34
2022-12-19T12:58:50.941Z,-6.20
2022-12-19T13:01:29.250Z,-6.19
2022-12-19T13:04:21.948Z,-6.22
2022-12-19T13:06:53.970Z,-6.26
2022-12-19T13:09:32.356Z,-6.30
2022-12-19T13:12:42.892Z,-6.29
2022-12-19T13:15:31.804Z,-6.38
2022-12-19T13:18:16.020Z,-6.98
2022-12-19T13:20:49.011Z,-6.65
2022-12-19T13:23:30.106Z,-6.45
2022-12-19T13:26:02.387Z,-7.19
2022-12-19T13:28:34.345Z,-6.47
2022-12-19T13:31:19.065Z,-6.53
2022-12-19T13:33:55.949Z,-6.57
2022-12-19T13:39:52.340Z,-6.64
2022-12-19T13:40:08.739Z,-6.67
2022-12-19T13:43:30.624Z,-6.70
2022-12-19T13:46:06.149Z,-6.82
2022-12-19T13:48:46.821Z,-6.95
2022-12-19T13:51:18.822Z,-6.92
2022-12-19T13:53:59.287Z,-7.09
2022-12-19T13:56:32.255Z,-6.95
2022-12-19T13:59:05.771Z,-7.51
2022-12-19T14:01:41.101Z,-7.18
2022-12-19T14:04:26.858Z,-7.38
2022-12-19T14:07:05.770Z,-7.26
2022-12-19T14:11:26.468Z,-7.79
2022-12-19T14:13:46.190Z,-7.71
2022-12-19T14:15:52.454Z,-7.52
2022-12-19T14:18:42.253Z,-7.30
2022-12-19T14:22:08.687Z,-7.35
2022-12-19T14:24:17.860Z,-7.33
2022-12-19T14:28:24.151Z,-7.66
2022-12-19T14:30:30.636Z,-7.68
2022-12-19T14:33:44.637Z,-7.62
2022-12-19T14:36:07.423Z,-7.55
2022-12-19T14:39:24.040Z,-7.51
2022-12-19T14:42:04.284Z,-7.51
2022-12-19T14:53:17.916Z,-7.75
2022-12-19T14:53:27.802Z,-7.51
2022-12-19T14:54:29.347Z,-7.59
2022-12-19T14:54:37.409Z,-7.53
2022-12-19T14:59:35.760Z,-7.62
2022-12-19T15:02:07.864Z,-7.60
2022-12-19T15:04:54.671Z,-7.75
2022-12-19T15:07:33.501Z,-7.96
2022-12-19T15:11:09.162Z,-7.70
2022-12-19T15:14:54.259Z,-7.63
2022-12-19T15:16:29.234Z,-7.68
2022-12-19T15:19:02.801Z,-7.61
2022-12-19T15:21:34.701Z,-7.95
2022-12-19T15:24:06.693Z,-7.79
2022-12-19T15:26:50.524Z,-7.90
2022-12-19T15:29:22.652Z,-7.76
2022-12-19T15:31:55.746Z,-7.62
2022-12-19T15:34:36.333Z,-7.76
2022-12-19T15:37:17.105Z,-7.65
2022-12-19T15:39:49.091Z,-7.73
2022-12-19T15:42:25.240Z,-7.69
2022-12-19T15:45:00.219Z,-7.66
2022-12-19T15:47:37.493Z,-7.63
2022-12-19T15:50:29.669Z,-7.54
2022-12-19T15:53:26.903Z,-7.76
2022-12-19T15:56:25.019Z,-7.53
2022-12-19T15:58:59.559Z,-7.51
2022-12-19T16:01:36.505Z,-7.53
2022-12-19T16:04:18.003Z,-7.45
2022-12-19T16:06:54.076Z,-7.40
2022-12-19T16:09:28.149Z,-7.35
2022-12-19T16:12:00.721Z,-7.72
2022-12-19T16:14:32.969Z,-7.40
2022-12-19T16:17:12.351Z,-7.34
2022-12-19T16:19:46.614Z,-7.18
2022-12-19T16:22:28.929Z,-7.20
2022-12-19T16:25:00.969Z,-7.48
2022-12-19T16:27:37.344Z,-7.29
2022-12-19T16:30:20.074Z,-7.09
2022-12-19T16:32:56.101Z,-7.07
2022-12-19T16:36:03.118Z,-7.00
2022-12-19T16:38:24.146Z,-7.14
2022-12-19T16:41:00.579Z,-7.08
2022-12-19T16:43:41.091Z,-7.03
2022-12-19T16:46:16.742Z,-7.03
2022-12-19T16:48:50.178Z,-7.05
2022-12-19T16:51:24.844Z,-7.34
2022-12-19T16:54:00.761Z,-7.10
2022-12-19T16:56:45.363Z,-7.10
2022-12-19T16:59:25.295Z,-7.11
2022-12-19T17:01:59.386Z,-7.18
2022-12-19T17:04:31.522Z,-7.28
2022-12-19T17:07:10.957Z,-7.17
2022-12-19T17:09:43.328Z,-7.27
2022-12-19T17:12:18.645Z,-7.28
2022-12-19T17:14:50.806Z,-7.36
2022-12-19T17:17:22.930Z,-7.17
2022-12-19T17:19:54.961Z,-7.13
2022-12-19T17:22:27.004Z,-7.81
2022-12-19T17:24:59.037Z,-7.56
2022-12-19T17:27:31.613Z,-7.92
2022-12-19T17:30:03.825Z,-7.58
2022-12-19T17:32:36.414Z,-7.61
2022-12-19T17:35:16.246Z,-7.12
2022-12-19T17:37:55.044Z,-7.42
2022-12-19T17:40:29.838Z,-7.05
2022-12-19T17:43:02.021Z,-7.13
2022-12-19T17:45:34.948Z,-7.07
2022-12-19T17:48:16.235Z,-7.42
2022-12-19T17:50:48.453Z,-6.99
2022-12-19T17:53:20.736Z,-7.36
2022-12-19T17:55:53.409Z,-6.79
2022-12-19T17:58:25.666Z,-7.25
2022-12-19T18:00:57.732Z,-7.03
2022-12-19T18:03:30.440Z,-6.92
2022-12-19T18:06:05.986Z,-6.83
2022-12-19T18:08:40.697Z,-6.66
2022-12-19T18:11:24.620Z,-6.58
2022-12-19T18:13:56.599Z,-6.76
2022-12-19T18:16:31.170Z,-6.61
2022-12-19T18:19:05.136Z,-6.55
2022-12-19T18:21:37.169Z,-6.66
2022-12-19T18:24:12.375Z,-6.47
2022-12-19T18:26:45.411Z,-6.49
2022-12-19T18:29:17.468Z,-6.56
2022-12-19T18:31:51.090Z,-6.36
2022-12-19T18:34:25.774Z,-6.33
2022-12-19T18:36:57.823Z,-6.45
2022-12-19T18:39:31.097Z,-6.65
2022-12-19T18:42:08.613Z,-6.66
2022-12-19T18:44:40.574Z,-6.23
2022-12-19T18:47:23.734Z,-6.18
2022-12-19T18:49:55.809Z,-6.22
2022-12-19T18:52:27.751Z,-6.24
2022-12-19T18:54:59.825Z,-6.24
2022-12-19T18:57:31.813Z,-6.04
2022-12-19T19:00:04.321Z,-6.29
2022-12-19T19:02:36.643Z,-6.12
2022-12-19T19:05:14.883Z,-6.01
2022-12-19T19:07:47.828Z,-6.08
2022-12-19T19:10:28.857Z,-5.97
2022-12-19T19:13:05.178Z,-6.03
2022-12-19T19:15:48.133Z,-5.95
2022-12-19T19:18:23.074Z,-5.94
2022-12-19T19:21:00.787Z,-5.92
2022-12-19T19:23:38.614Z,-5.86
2022-12-19T19:26:10.649Z,-6.30
2022-12-19T19:28:45.951Z,-5.94
2022-12-19T19:31:26.916Z,-5.95
2022-12-19T19:34:22.264Z,-5.68
2022-12-19T19:36:56.634Z,-5.77
2022-12-19T19:39:32.050Z,-5.67
2022-12-19T19:42:04.263Z,-5.59
2022-12-19T19:44:37.352Z,-5.66
2022-12-19T19:47:09.394Z,-5.55
2022-12-19T19:49:41.656Z,-5.66
2022-12-19T19:52:13.592Z,-5.62
2022-12-19T19:54:46.119Z,-5.69
2022-12-19T19:57:18.124Z,-5.74
2022-12-19T19:59:50.124Z,-5.66
2022-12-19T20:02:22.730Z,-5.55
2022-12-19T20:04:54.853Z,-5.52
2022-12-19T20:07:27.221Z,-5.86
2022-12-19T20:09:59.367Z,-5.89
2022-12-19T20:12:31.688Z,-5.42
2022-12-19T20:15:04.786Z,-5.41
2022-12-19T20:17:37.083Z,-5.45
2022-12-19T20:20:09.545Z,-5.35
2022-12-19T20:22:42.877Z,-5.25
2022-12-19T20:25:15.046Z,-5.44
2022-12-19T20:27:47.060Z,-5.25
2022-12-19T20:30:19.224Z,-5.19
2022-12-19T20:32:51.236Z,-5.20
2022-12-19T20:35:24.180Z,-5.58
2022-12-19T20:37:56.336Z,-5.09
2022-12-19T20:40:28.543Z,-5.05
2022-12-19T20:43:00.520Z,-4.89
2022-12-19T20:45:32.764Z,-5.24
2022-12-19T20:48:04.874Z,-4.99
2022-12-19T20:50:42.893Z,-4.92
2022-12-19T20:53:15.524Z,-4.78
2022-12-19T20:55:58.136Z,-4.97
2022-12-19T20:58:33.388Z,-4.80
2022-12-19T21:01:08.945Z,-4.75
2022-12-19T21:03:41.738Z,-4.80
2022-12-19T21:06:15.502Z,-4.73
2022-12-19T21:08:49.053Z,-4.73
2022-12-19T21:11:21.715Z,-5.15
2022-12-19T21:13:53.972Z,-4.67
2022-12-19T21:16:26.154Z,-4.88
2022-12-19T21:18:58.429Z,-5.04
2022-12-19T21:21:30.676Z,-4.77
2022-12-19T21:24:03.606Z,-4.68
2022-12-19T21:26:35.769Z,-4.61
2022-12-19T21:29:07.880Z,-4.58
2022-12-19T21:31:43.214Z,-4.89
2022-12-19T21:34:15.341Z,-4.57
2022-12-19T21:36:47.487Z,-5.09
2022-12-19T21:39:21.005Z,-5.05
2022-12-19T21:41:53.214Z,-4.83
2022-12-19T21:44:25.233Z,-4.87
2022-12-19T21:46:57.295Z,-4.54
2022-12-19T21:49:29.410Z,-4.88
2022-12-19T21:52:01.496Z,-4.37
2022-12-19T21:54:33.494Z,-4.54
2022-12-19T21:57:05.615Z,-4.37
2022-12-19T21:59:37.655Z,-4.32
2022-12-19T22:02:11.154Z,-4.25
2022-12-19T22:04:43.133Z,-4.62
2022-12-19T22:07:15.736Z,-4.29
2022-12-19T22:09:47.703Z,-4.50
2022-12-19T22:12:19.882Z,-4.19
2022-12-19T22:14:52.060Z,-4.66
2022-12-19T22:17:24.045Z,-4.31
2022-12-19T22:19:56.126Z,-4.49
2022-12-19T22:22:28.105Z,-4.19
2022-12-19T22:25:00.142Z,-4.19
2022-12-19T22:27:32.159Z,-4.13
2022-12-19T22:30:10.689Z,-4.00
2022-12-19T22:32:43.261Z,-3.99
2022-12-19T22:35:15.408Z,-3.96
2022-12-19T22:37:50.677Z,-4.01
2022-12-19T22:40:22.839Z,-3.84
2022-12-19T22:42:55.045Z,-4.06
2022-12-19T22:45:30.800Z,-3.86
2022-12-19T22:48:02.961Z,-4.51
2022-12-19T22:50:35.108Z,-4.39
2022-12-19T22:53:12.600Z,-3.77
2022-12-19T22:55:44.975Z,-3.87
2022-12-19T22:58:16.982Z,-3.86
2022-12-19T23:00:49.936Z,-3.60
2022-12-19T23:03:22.163Z,-3.92
2022-12-19T23:05:55.049Z,-3.65
2022-12-19T23:08:27.017Z,-3.60
2022-12-19T23:10:59.024Z,-3.44
2022-12-19T23:13:30.993Z,-3.50
2022-12-19T23:16:03.121Z,-3.55
2022-12-19T23:18:35.574Z,-3.85
2022-12-19T23:21:19.289Z,-3.41
2022-12-19T23:23:54.080Z,-3.25
2022-12-19T23:26:29.235Z,-3.67
2022-12-19T23:29:09.750Z,-3.20
2022-12-19T23:31:44.476Z,-3.61
2022-12-19T23:34:17.008Z,-3.24
2022-12-19T23:39:42.328Z,-3.28
2022-12-19T23:42:14.295Z,-3.03
2022-12-19T23:44:46.264Z,-3.14
2022-12-19T23:47:18.217Z,-3.05
2022-12-19T23:49:50.179Z,-2.99
2022-12-19T23:52:22.178Z,-3.13
2022-12-19T23:54:54.211Z,-2.99
2022-12-19T23:57:26.186Z,-3.09
2022-12-19T23:59:58.093Z,-3.21
